Time;durP1;ratioP1;P1;durP2;ratioP2;P2;SDS_P1;SDS_P2;PMS_P1;PMS_P2;Temp;Humidity;BMP_temperature;BMP_pressure;BME280_temperature;BME280_humidity;BME280_pressure;Samples;Min_cycle;Max_cycle;Signal;HPM_P1;HPM_P2
2022/05/20 00:02:00;;;;;;;7.90;7.13;;;19.60;99.90;;;;;;4987335;28;20219;-63
2022/05/20 00:04:26;;;;;;;7.73;7.03;;;19.50;99.90;;;;;;4986764;28;20202;-62
2022/05/20 00:06:51;;;;;;;8.43;7.27;;;19.40;99.90;;;;;;4992928;28;20184;-64
2022/05/20 00:09:17;;;;;;;8.47;7.57;;;19.40;99.90;;;;;;5000520;28;20545;-64
2022/05/20 00:11:42;;;;;;;7.93;7.33;;;19.40;99.90;;;;;;4988781;28;20243;-63
2022/05/20 00:14:08;;;;;;;8.90;7.60;;;19.50;99.90;;;;;;4980649;28;20188;-64
2022/05/20 00:16:35;;;;;;;8.50;7.80;;;19.50;99.90;;;;;;4994715;28;20223;-64
2022/05/20 00:19:03;;;;;;;8.57;7.27;;;19.50;99.90;;;;;;4981104;28;20455;-64
2022/05/20 00:21:29;;;;;;;11.53;7.47;;;19.40;99.90;;;;;;4984398;28;20512;-64
2022/05/20 00:23:55;;;;;;;8.97;8.17;;;19.40;99.90;;;;;;4988507;28;20495;-64
2022/05/20 00:26:20;;;;;;;8.80;8.00;;;19.40;99.90;;;;;;4982673;28;21425;-64
2022/05/20 00:28:48;;;;;;;8.07;7.37;;;19.30;99.90;;;;;;4981536;28;20538;-63
2022/05/20 00:31:15;;;;;;;8.20;7.40;;;19.30;99.90;;;;;;4993927;28;20546;-64
2022/05/20 00:33:41;;;;;;;8.80;8.10;;;19.30;99.90;;;;;;4991671;28;20477;-63
2022/05/20 00:36:07;;;;;;;7.53;6.93;;;19.30;99.90;;;;;;4997214;28;20882;-63
2022/05/20 00:38:32;;;;;;;7.90;7.40;;;19.20;99.90;;;;;;4989001;28;20494;-64
2022/05/20 00:40:58;;;;;;;10.23;7.10;;;19.20;99.90;;;;;;4990144;28;20466;-64
2022/05/20 00:43:29;;;;;;;8.03;7.33;;;19.10;99.90;;;;;;4988705;28;20199;-64
2022/05/20 00:45:58;;;;;;;8.30;7.60;;;19.20;99.90;;;;;;4981596;28;20846;-64
2022/05/20 00:48:24;;;;;;;7.57;6.97;;;19.10;99.90;;;;;;4988581;28;20434;-64
2022/05/20 00:50:55;;;;;;;8.97;7.27;;;19.10;99.90;;;;;;4989032;28;21895;-64
2022/05/20 00:53:23;;;;;;;8.10;7.33;;;19.10;99.90;;;;;;4977433;28;20851;-64
2022/05/20 00:55:48;;;;;;;8.23;7.63;;;19.10;99.90;;;;;;4986411;28;20439;-64
2022/05/20 00:58:19;;;;;;;7.67;7.07;;;19.00;99.90;;;;;;4992147;28;20441;-64
2022/05/20 01:00:49;;;;;;;9.00;8.20;;;19.00;99.90;;;;;;4992896;28;20565;-64
2022/05/20 01:03:18;;;;;;;7.77;6.90;;;18.90;99.90;;;;;;4993118;28;20473;-65
2022/05/20 01:05:47;;;;;;;8.33;7.50;;;18.90;99.90;;;;;;4982012;28;20980;-64
2022/05/20 01:08:17;;;;;;;11.67;7.70;;;18.80;99.90;;;;;;4983634;28;20490;-64
2022/05/20 01:10:43;;;;;;;7.93;7.23;;;18.80;99.90;;;;;;4995744;28;20970;-64
2022/05/20 01:13:10;;;;;;;8.33;7.53;;;18.80;99.90;;;;;;4997192;28;20983;-64
2022/05/20 01:15:36;;;;;;;9.30;7.40;;;18.90;99.90;;;;;;4989779;28;20446;-64
2022/05/20 01:18:02;;;;;;;8.87;8.23;;;18.80;99.90;;;;;;4987708;28;20517;-64
2022/05/20 01:20:35;;;;;;;7.47;6.80;;;19.00;99.90;;;;;;4998166;28;20681;-64
2022/05/20 01:23:11;;;;;;;8.90;8.20;;;19.00;99.90;;;;;;4989254;28;20473;-64
2022/05/20 01:25:41;;;;;;;8.30;7.40;;;19.00;99.90;;;;;;4996738;28;20503;-64
2022/05/20 01:28:07;;;;;;;10.00;6.77;;;19.00;99.90;;;;;;4988731;28;20814;-64
2022/05/20 01:30:33;;;;;;;7.97;7.37;;;19.00;99.90;;;;;;4995031;28;20438;-64
2022/05/20 01:33:06;;;;;;;8.63;7.30;;;18.90;99.90;;;;;;4989122;28;20458;-64
2022/05/20 01:35:41;;;;;;;8.70;8.00;;;18.90;99.90;;;;;;4989275;28;20180;-64
2022/05/20 01:38:09;;;;;;;7.77;7.07;;;18.90;99.90;;;;;;4984075;28;20968;-63
2022/05/20 01:40:47;;;;;;;8.77;7.83;;;18.90;99.90;;;;;;4999816;28;20447;-64
2022/05/20 01:43:19;;;;;;;10.83;8.03;;;18.90;99.90;;;;;;5001943;28;20458;-64
2022/05/20 01:45:50;;;;;;;9.10;8.20;;;18.90;99.90;;;;;;4991345;28;20463;-64
2022/05/20 01:48:30;;;;;;;8.20;6.97;;;18.90;99.90;;;;;;4982722;28;20963;-63
2022/05/20 01:50:56;;;;;;;8.27;7.47;;;18.80;99.90;;;;;;4991025;28;20437;-64
2022/05/20 01:53:37;;;;;;;8.30;7.60;;;18.90;99.90;;;;;;4995569;28;20813;-64
2022/05/20 01:56:17;;;;;;;19.03;8.20;;;18.90;99.90;;;;;;4981500;28;20432;-63
2022/05/20 01:58:58;;;;;;;8.17;7.47;;;18.80;99.90;;;;;;4987642;28;20472;-64
2022/05/20 02:01:29;;;;;;;8.10;7.50;;;18.80;99.90;;;;;;4981056;28;20501;-63
2022/05/20 02:04:03;;;;;;;8.50;7.70;;;18.90;99.90;;;;;;4988751;28;20443;-64
2022/05/20 02:06:44;;;;;;;9.43;8.33;;;18.90;99.90;;;;;;4981623;28;20471;-64
2022/05/20 02:09:16;;;;;;;9.13;7.30;;;18.90;99.90;;;;;;4993020;28;20466;-64
2022/05/20 02:11:46;;;;;;;8.13;7.47;;;18.90;99.90;;;;;;4993553;28;20954;-64
2022/05/20 02:14:17;;;;;;;8.73;7.93;;;19.00;99.90;;;;;;4988997;28;20975;-64
2022/05/20 02:17:14;;;;;;;11.40;7.70;;;19.00;99.90;;;;;;4982389;28;20471;-64
2022/05/20 02:19:47;;;;;;;8.13;7.43;;;19.00;99.90;;;;;;4985222;28;20433;-64
2022/05/20 02:22:17;;;;;;;8.87;8.10;;;19.00;99.90;;;;;;4989326;28;20458;-64
2022/05/20 02:24:45;;;;;;;8.10;7.30;;;18.90;99.90;;;;;;4983784;28;20467;-63
2022/05/20 02:27:18;;;;;;;8.43;7.10;;;19.00;99.90;;;;;;4987557;28;20449;-64
2022/05/20 02:29:52;;;;;;;8.07;7.40;;;19.10;99.90;;;;;;4984251;28;20443;-63
2022/05/20 02:32:39;;;;;;;8.20;7.43;;;18.90;99.90;;;;;;4999036;28;20460;-63
2022/05/20 02:35:05;;;;;;;8.67;7.97;;;19.00;99.90;;;;;;4993527;28;20446;-64
2022/05/20 02:37:35;;;;;;;8.77;8.07;;;18.90;99.90;;;;;;5000165;28;20460;-64
2022/05/20 02:40:02;;;;;;;9.13;8.00;;;19.00;99.90;;;;;;4988334;28;20199;-64
2022/05/20 02:42:31;;;;;;;8.53;7.83;;;19.00;99.90;;;;;;4998396;28;20526;-64
2022/05/20 02:44:59;;;;;;;10.40;8.37;;;19.00;99.90;;;;;;4993987;28;20543;-64
2022/05/20 02:47:31;;;;;;;8.57;7.77;;;19.10;99.90;;;;;;4976657;28;20427;-64
2022/05/20 02:49:57;;;;;;;8.80;8.00;;;19.10;99.90;;;;;;4984697;28;20440;-64
2022/05/20 02:52:23;;;;;;;8.43;7.83;;;19.10;99.90;;;;;;4993827;28;20470;-63
2022/05/20 02:54:49;;;;;;;9.50;8.70;;;19.10;99.90;;;;;;4983861;28;20562;-64
2022/05/20 02:57:14;;;;;;;9.07;8.07;;;19.10;99.90;;;;;;4980061;28;20704;-64
2022/05/20 03:05:08;;;;;;;9.20;8.43;;;19.10;99.90;;;;;;4973205;28;20521;-63
2022/05/20 03:07:34;;;;;;;10.23;9.07;;;19.00;99.90;;;;;;4986515;28;20430;-64
2022/05/20 03:10:00;;;;;;;9.70;8.80;;;19.10;99.90;;;;;;4984904;28;20182;-64
2022/05/20 03:12:26;;;;;;;9.63;8.80;;;19.00;99.90;;;;;;4984031;28;20528;-65
2022/05/20 03:14:52;;;;;;;10.93;9.13;;;19.10;99.90;;;;;;4983777;28;20660;-62
2022/05/20 03:17:17;;;;;;;9.97;7.40;;;19.20;99.90;;;;;;4988242;28;20214;-64
2022/05/20 03:19:43;;;;;;;9.20;8.50;;;19.20;99.90;;;;;;4988773;28;20191;-64
2022/05/20 03:22:08;;;;;;;9.57;8.37;;;19.20;99.90;;;;;;4986881;28;20231;-62
2022/05/20 03:24:35;;;;;;;9.43;8.67;;;19.20;99.90;;;;;;4985193;28;20199;-63
2022/05/20 03:27:00;;;;;;;9.90;9.10;;;19.30;99.90;;;;;;4988505;28;20175;-64
2022/05/20 03:29:26;;;;;;;10.47;9.43;;;19.30;99.90;;;;;;4987414;28;20947;-64
2022/05/20 03:31:51;;;;;;;9.73;8.83;;;19.30;99.90;;;;;;4989260;28;20222;-63
2022/05/20 03:34:19;;;;;;;11.30;9.10;;;19.40;99.90;;;;;;4990665;28;20180;-64
2022/05/20 03:36:46;;;;;;;9.57;8.77;;;19.40;99.90;;;;;;4990283;28;20214;-64
2022/05/20 03:39:15;;;;;;;9.83;9.13;;;19.30;99.90;;;;;;4986171;28;20434;-64
2022/05/20 03:41:41;;;;;;;11.77;10.40;;;19.30;99.90;;;;;;4992194;28;20462;-65
2022/05/20 03:44:08;;;;;;;12.40;11.23;;;19.30;99.90;;;;;;4984868;28;20463;-63
2022/05/20 03:46:43;;;;;;;10.60;9.50;;;19.30;99.90;;;;;;4984491;28;20439;-64
2022/05/20 03:49:09;;;;;;;9.57;8.87;;;19.30;99.90;;;;;;4992778;28;20435;-63
2022/05/20 03:51:35;;;;;;;8.90;8.17;;;19.30;99.90;;;;;;5006560;28;20980;-63
2022/05/20 03:54:02;;;;;;;8.93;8.03;;;19.30;99.90;;;;;;4988824;28;20626;-64
2022/05/20 03:56:27;;;;;;;8.50;7.80;;;19.20;99.90;;;;;;5000054;28;20997;-63
2022/05/20 03:58:53;;;;;;;9.43;8.37;;;19.30;99.90;;;;;;4987102;28;20442;-64
2022/05/20 04:04:06;;;;;;;8.10;7.50;;;19.40;99.90;;;;;;4993654;28;20337;-63
2022/05/20 04:06:31;;;;;;;8.30;7.60;;;19.50;99.90;;;;;;4991586;28;21025;-63
2022/05/20 04:08:57;;;;;;;8.57;7.87;;;19.40;99.90;;;;;;4988921;28;20236;-63
2022/05/20 04:11:24;;;;;;;7.37;6.83;;;19.40;99.90;;;;;;4990045;28;20586;-63
2022/05/20 04:13:50;;;;;;;8.70;8.00;;;19.40;99.90;;;;;;4985111;28;20180;-63
2022/05/20 04:16:16;;;;;;;9.73;8.80;;;19.30;99.90;;;;;;5000625;28;20437;-63
2022/05/20 04:18:42;;;;;;;10.63;9.77;;;19.20;99.90;;;;;;4997704;28;20215;-62
2022/05/20 04:21:10;;;;;;;9.83;8.83;;;19.20;99.90;;;;;;4987412;28;20439;-63
2022/05/20 04:23:35;;;;;;;8.27;7.57;;;19.10;99.90;;;;;;4989490;28;20501;-63
2022/05/20 04:26:01;;;;;;;7.60;7.00;;;19.10;99.90;;;;;;4989693;28;20466;-63
2022/05/20 04:28:27;;;;;;;8.63;7.10;;;19.10;99.90;;;;;;4988451;28;20189;-64
2022/05/20 04:30:56;;;;;;;7.20;6.70;;;19.20;99.90;;;;;;4978602;28;20184;-63
2022/05/20 04:33:22;;;;;;;9.60;8.67;;;19.10;99.90;;;;;;4986255;28;20609;-63
2022/05/20 04:35:48;;;;;;;11.00;7.67;;;19.20;99.90;;;;;;4984015;28;20498;-63
2022/05/20 04:38:14;;;;;;;9.47;8.53;;;19.20;99.90;;;;;;4985822;28;20454;-63
2022/05/20 04:40:39;;;;;;;8.40;7.67;;;19.30;99.90;;;;;;4985866;28;20237;-63
2022/05/20 04:48:33;;;;;;;9.80;8.03;;;19.30;99.90;;;;;;4979079;28;20570;-63
2022/05/20 04:50:59;;;;;;;7.13;6.50;;;19.40;99.90;;;;;;4989601;28;20440;-63
2022/05/20 04:56:09;;;;;;;7.30;6.80;;;19.60;99.90;;;;;;4990089;28;20194;-64
2022/05/20 04:58:35;;;;;;;7.03;6.20;;;19.70;99.90;;;;;;4990054;28;20443;-63
2022/05/20 05:01:01;;;;;;;10.60;7.03;;;19.80;99.90;;;;;;4983161;28;20271;-63
2022/05/20 05:03:27;;;;;;;6.73;6.33;;;20.00;99.90;;;;;;4988717;28;20474;-63
2022/05/20 05:05:52;;;;;;;6.80;6.30;;;20.10;99.90;;;;;;4993129;28;20258;-64
2022/05/20 05:08:18;;;;;;;10.17;6.97;;;20.20;99.90;;;;;;4990949;28;20183;-63
2022/05/20 05:10:44;;;;;;;10.33;9.43;;;20.30;99.90;;;;;;4997056;28;20171;-63
2022/05/20 05:13:12;;;;;;;7.57;6.97;;;20.40;99.90;;;;;;4993146;28;20231;-63
2022/05/20 05:15:38;;;;;;;7.40;6.77;;;20.60;99.90;;;;;;5002375;28;21630;-63
2022/05/20 05:18:12;;;;;;;7.37;6.60;;;20.70;99.90;;;;;;5000124;28;20807;-64
2022/05/20 05:20:46;;;;;;;8.43;6.67;;;20.70;99.90;;;;;;5002716;28;20436;-63
2022/05/20 05:23:12;;;;;;;7.50;6.83;;;20.80;99.90;;;;;;4995684;28;20482;-64
2022/05/20 05:25:38;;;;;;;7.90;7.30;;;20.90;99.90;;;;;;4999121;28;20497;-63
2022/05/20 05:28:05;;;;;;;8.00;7.30;;;21.00;99.90;;;;;;4998590;28;20442;-65
2022/05/20 05:30:31;;;;;;;6.93;6.33;;;21.20;99.90;;;;;;4996081;28;20491;-64
2022/05/20 05:32:57;;;;;;;7.77;7.03;;;21.30;99.90;;;;;;4996532;28;20506;-64
2022/05/20 05:35:25;;;;;;;8.10;7.30;;;21.40;99.90;;;;;;4981364;28;20446;-63
2022/05/20 05:37:51;;;;;;;7.53;6.20;;;21.50;99.90;;;;;;4992517;28;20565;-64
2022/05/20 05:40:26;;;;;;;8.03;7.33;;;21.70;99.90;;;;;;4991079;28;20435;-62
2022/05/20 05:42:52;;;;;;;9.23;7.80;;;21.90;99.90;;;;;;4982194;28;20465;-63
2022/05/20 05:45:21;;;;;;;7.83;6.13;;;22.10;99.90;;;;;;4990268;28;20857;-63
2022/05/20 05:47:57;;;;;;;6.53;5.47;;;22.20;99.90;;;;;;4991924;28;20475;-62
2022/05/20 05:50:22;;;;;;;6.60;6.10;;;22.30;99.90;;;;;;4977014;28;20457;-63
2022/05/20 05:52:59;;;;;;;6.47;5.87;;;22.50;99.90;;;;;;4984182;28;20541;-63
2022/05/20 05:55:26;;;;;;;6.67;6.20;;;22.50;99.90;;;;;;4989449;28;20610;-64
2022/05/20 05:57:52;;;;;;;6.10;5.57;;;22.70;99.90;;;;;;4989893;28;21027;-64
2022/05/20 06:00:18;;;;;;;6.30;5.80;;;22.80;99.90;;;;;;4993033;28;20438;-64
2022/05/20 06:02:43;;;;;;;5.13;4.80;;;22.80;99.90;;;;;;4992591;28;20717;-64
2022/05/20 06:05:09;;;;;;;6.47;5.97;;;22.70;99.90;;;;;;4987095;28;20503;-63
2022/05/20 06:07:34;;;;;;;8.60;5.50;;;22.60;99.90;;;;;;4987230;28;20198;-64
2022/05/20 06:10:00;;;;;;;6.70;6.10;;;22.70;99.90;;;;;;4986677;28;20600;-63
2022/05/20 06:12:25;;;;;;;5.77;5.37;;;22.80;99.90;;;;;;4987825;28;20200;-64
2022/05/20 06:14:51;;;;;;;6.70;6.17;;;22.80;99.90;;;;;;4979872;28;20215;-64
2022/05/20 06:17:17;;;;;;;5.70;5.17;;;22.90;99.90;;;;;;4999818;28;20183;-62
2022/05/20 06:19:42;;;;;;;5.70;5.13;;;23.00;99.90;;;;;;4992370;28;20187;-63
2022/05/20 06:22:10;;;;;;;6.13;5.63;;;23.10;99.90;;;;;;4986625;28;20207;-64
2022/05/20 06:24:36;;;;;;;6.80;6.30;;;23.20;99.90;;;;;;5003141;28;20210;-67
2022/05/20 06:27:02;;;;;;;7.23;5.83;;;23.50;99.90;;;;;;4985420;28;20434;-67
2022/05/20 06:29:27;;;;;;;5.77;5.20;;;23.60;99.90;;;;;;4995138;28;21142;-67
2022/05/20 06:31:53;;;;;;;5.40;4.73;;;23.80;99.90;;;;;;4984524;28;20576;-68
2022/05/20 06:34:19;;;;;;;7.07;5.87;;;23.90;99.90;;;;;;4991419;28;20183;-67
2022/05/20 06:42:13;;;;;;;6.00;5.50;;;24.40;99.90;;;;;;4988725;28;20508;-67
2022/05/20 06:44:38;;;;;;;5.13;4.80;;;24.60;99.90;;;;;;4986358;28;20553;-68
2022/05/20 06:47:05;;;;;;;5.63;5.10;;;24.90;99.90;;;;;;4987206;28;20793;-68
2022/05/20 06:49:30;;;;;;;5.67;5.27;;;25.00;99.90;;;;;;4984478;28;20558;-68
2022/05/20 06:51:56;;;;;;;5.30;4.80;;;25.10;99.90;;;;;;4983329;28;20467;-68
2022/05/20 06:54:23;;;;;;;6.23;5.63;;;25.30;99.90;;;;;;4982924;28;20221;-68
2022/05/20 06:56:48;;;;;;;5.90;5.40;;;25.30;99.90;;;;;;4996105;28;20449;-66
2022/05/20 06:59:14;;;;;;;5.43;5.03;;;25.40;99.90;;;;;;4984294;28;20942;-67
2022/05/20 07:01:40;;;;;;;10.13;4.70;;;25.50;99.90;;;;;;4987646;28;20705;-68
2022/05/20 07:04:07;;;;;;;5.30;4.90;;;25.50;99.90;;;;;;4995631;28;20183;-67
2022/05/20 07:06:34;;;;;;;5.60;5.13;;;25.70;99.90;;;;;;4985964;28;20216;-68
2022/05/20 07:09:00;;;;;;;5.23;4.83;;;25.90;99.90;;;;;;4998370;28;20950;-66
2022/05/20 07:11:26;;;;;;;5.80;4.70;;;25.90;99.90;;;;;;4990059;28;20604;-67
2022/05/20 07:13:55;;;;;;;5.50;5.10;;;26.00;99.90;;;;;;4981894;28;20535;-67
2022/05/20 07:16:29;;;;;;;4.97;4.57;;;26.10;99.90;;;;;;4986084;28;20176;-68
2022/05/20 07:18:55;;;;;;;5.60;5.07;;;26.20;99.90;;;;;;4988499;28;20810;-66
2022/05/20 07:21:20;;;;;;;5.30;4.80;;;26.30;99.90;;;;;;4989864;28;20518;-67
2022/05/20 07:23:46;;;;;;;5.90;5.40;;;26.40;99.90;;;;;;4992402;28;20847;-68
2022/05/20 07:26:13;;;;;;;7.93;6.60;;;26.40;99.90;;;;;;4994005;28;20202;-68
2022/05/20 07:28:39;;;;;;;5.77;5.27;;;26.50;99.90;;;;;;4989025;28;20555;-68
2022/05/20 07:31:06;;;;;;;6.37;4.73;;;26.50;99.90;;;;;;4992760;28;20462;-67
2022/05/20 07:33:32;;;;;;;6.37;5.23;;;26.50;99.90;;;;;;4998518;28;20191;-68
2022/05/20 07:35:59;;;;;;;6.57;5.50;;;26.90;99.90;;;;;;5003761;28;20433;-67
2022/05/20 07:38:25;;;;;;;5.83;4.90;;;27.10;99.90;;;;;;4987742;28;20176;-66
2022/05/20 07:40:50;;;;;;;5.77;4.63;;;27.10;99.90;;;;;;4987719;28;20496;-69
2022/05/20 07:43:20;;;;;;;5.67;5.27;;;27.40;99.90;;;;;;4989654;28;20461;-67
2022/05/20 07:45:46;;;;;;;5.10;4.70;;;27.20;99.90;;;;;;4984171;28;20207;-67
2022/05/20 07:48:12;;;;;;;9.80;5.37;;;27.20;99.90;;;;;;4979083;28;20959;-69
2022/05/20 07:50:42;;;;;;;5.60;5.30;;;27.30;99.90;;;;;;4984592;28;20465;-67
2022/05/20 07:53:21;;;;;;;5.90;5.40;;;27.30;99.90;;;;;;4988658;28;20691;-68
2022/05/20 07:56:19;;;;;;;7.50;5.40;;;27.70;99.90;;;;;;4987576;28;20762;-67
2022/05/20 07:58:49;;;;;;;6.40;5.77;;;27.70;99.90;;;;;;4990225;28;20478;-68
2022/05/20 08:01:22;;;;;;;6.40;5.80;;;27.90;99.90;;;;;;4989497;28;20507;-68
2022/05/20 08:06:38;;;;;;;6.30;5.73;;;28.50;99.90;;;;;;5000189;28;20458;-67
2022/05/20 08:09:04;;;;;;;6.40;5.60;;;28.60;99.90;;;;;;4978880;28;20471;-68
2022/05/20 08:11:30;;;;;;;9.03;5.07;;;28.80;99.90;;;;;;4990323;28;20561;-68
2022/05/20 08:13:56;;;;;;;5.73;5.10;;;29.20;99.90;;;;;;4995060;28;20990;-67
2022/05/20 08:16:21;;;;;;;8.40;5.27;;;29.10;99.90;;;;;;4989148;28;20198;-70
2022/05/20 08:18:47;;;;;;;6.23;5.43;;;29.10;99.90;;;;;;5003179;28;20611;-69
2022/05/20 08:21:12;;;;;;;7.13;5.33;;;29.30;99.90;;;;;;5000027;28;20211;-67
2022/05/20 08:23:38;;;;;;;6.03;5.53;;;29.10;99.90;;;;;;4997792;28;20545;-66
2022/05/20 08:26:03;;;;;;;5.73;5.23;;;29.60;99.90;;;;;;4991504;28;20212;-70
2022/05/20 08:28:29;;;;;;;5.87;5.20;;;30.10;99.90;;;;;;5006268;28;20178;-68
2022/05/20 08:30:54;;;;;;;7.70;5.17;;;30.30;99.90;;;;;;5006054;28;20187;-69
2022/05/20 08:33:19;;;;;;;5.90;5.40;;;30.50;99.90;;;;;;4984495;28;20282;-68
2022/05/20 08:35:45;;;;;;;5.83;5.50;;;30.30;99.90;;;;;;4991135;28;20622;-68
2022/05/20 08:38:11;;;;;;;6.77;6.37;;;30.30;99.90;;;;;;4993684;28;20190;-68
2022/05/20 08:40:45;;;;;;;6.07;5.57;;;29.90;99.90;;;;;;4998615;28;20280;-68
2022/05/20 08:43:12;;;;;;;7.00;5.60;;;29.80;99.90;;;;;;4976229;28;20566;-68
2022/05/20 08:45:37;;;;;;;6.67;6.00;;;30.20;99.90;;;;;;4989586;28;20527;-69
2022/05/20 08:48:06;;;;;;;5.70;5.30;;;30.60;99.90;;;;;;4984876;28;20526;-68
2022/05/20 08:50:46;;;;;;;6.40;5.77;;;30.80;99.90;;;;;;4991406;28;20199;-66
2022/05/20 08:53:21;;;;;;;6.90;6.13;;;30.70;99.90;;;;;;4982780;28;20457;-70
2022/05/20 08:55:47;;;;;;;5.97;4.93;;;30.50;99.90;;;;;;4982338;28;20446;-71
2022/05/20 08:58:19;;;;;;;6.53;6.03;;;30.60;99.90;;;;;;4976271;28;20815;-70
2022/05/20 09:00:45;;;;;;;8.57;5.70;;;30.90;99.90;;;;;;4980707;28;20552;-67
2022/05/20 09:03:11;;;;;;;6.50;5.90;;;31.00;99.90;;;;;;4979114;28;20466;-67
2022/05/20 09:05:40;;;;;;;8.03;5.57;;;31.20;99.90;;;;;;4975073;28;20717;-67
2022/05/20 09:08:17;;;;;;;8.77;5.87;;;30.80;99.80;;;;;;4979211;28;20466;-68
2022/05/20 09:10:58;;;;;;;5.77;5.27;;;31.40;99.90;;;;;;4979980;28;20952;-67
2022/05/20 09:16:24;;;;;;;6.47;5.40;;;31.50;99.60;;;;;;4984368;28;20488;-67
2022/05/20 09:19:11;;;;;;;6.93;6.23;;;31.00;99.00;;;;;;4995189;28;20437;-67
2022/05/20 09:21:42;;;;;;;5.63;5.13;;;31.20;99.20;;;;;;4989234;28;20455;-68
2022/05/20 09:24:18;;;;;;;7.67;5.33;;;31.70;99.60;;;;;;4983163;28;20432;-67
2022/05/20 09:26:49;;;;;;;6.23;5.63;;;31.70;98.60;;;;;;4989210;28;20967;-67
2022/05/20 09:29:31;;;;;;;5.97;5.57;;;31.70;99.60;;;;;;4992138;28;20435;-66
2022/05/20 09:32:00;;;;;;;7.30;5.50;;;31.50;98.10;;;;;;4984934;28;20450;-66
2022/05/20 09:34:26;;;;;;;6.83;6.17;;;31.80;97.40;;;;;;4987023;28;20496;-67
2022/05/20 09:37:05;;;;;;;6.27;5.67;;;32.20;97.10;;;;;;4990174;28;20453;-68
2022/05/20 09:39:41;;;;;;;9.37;5.40;;;32.50;96.80;;;;;;4976533;28;20202;-66
2022/05/20 09:42:23;;;;;;;5.90;5.30;;;32.40;96.20;;;;;;4991083;28;20525;-68
2022/05/20 09:44:51;;;;;;;6.10;5.60;;;32.40;95.80;;;;;;4979465;28;20467;-66
2022/05/20 09:47:54;;;;;;;7.40;6.67;;;32.10;96.40;;;;;;4991779;28;20438;-67
2022/05/20 09:50:33;;;;;;;5.80;5.40;;;32.70;96.80;;;;;;4985112;28;20552;-67
2022/05/20 09:53:02;;;;;;;6.53;6.13;;;33.20;95.40;;;;;;4988370;28;20479;-67
2022/05/20 09:55:40;;;;;;;9.93;6.20;;;33.20;94.70;;;;;;4979638;28;20438;-67
2022/05/20 09:58:16;;;;;;;6.17;5.70;;;33.30;94.80;;;;;;4985630;28;20483;-66
2022/05/20 10:01:03;;;;;;;6.50;5.77;;;33.50;94.10;;;;;;4987790;28;20477;-70
2022/05/20 10:03:32;;;;;;;6.03;5.47;;;34.20;93.70;;;;;;4980507;28;20957;-67
2022/05/20 10:06:21;;;;;;;8.27;7.47;;;34.70;92.90;;;;;;4987027;28;20981;-67
2022/05/20 10:09:05;;;;;;;6.00;5.40;;;35.00;93.00;;;;;;4985138;28;20476;-67
2022/05/20 10:11:37;;;;;;;6.60;6.00;;;35.10;92.10;;;;;;4974673;28;20451;-67
2022/05/20 10:14:23;;;;;;;6.37;5.77;;;35.40;91.80;;;;;;4986292;28;20439;-67
2022/05/20 10:17:00;;;;;;;5.90;5.40;;;34.80;91.00;;;;;;4990301;28;20465;-67
2022/05/20 10:19:36;;;;;;;6.30;5.80;;;34.40;91.30;;;;;;4987145;28;20496;-67
2022/05/20 10:22:19;;;;;;;5.83;5.23;;;35.80;90.40;;;;;;4990695;28;20988;-66
2022/05/20 10:25:26;;;;;;;6.60;5.40;;;36.10;86.70;;;;;;4979153;28;20478;-67
2022/05/20 10:32:33;;;;;;;6.40;5.50;;;36.10;85.20;;;;;;4992061;28;20447;-66
2022/05/20 10:33:49;;;;;;;5.80;4.57;;;37.30;80.30;;;;;;4985488;28;20893;-66
2022/05/20 10:36:46;;;;;;;7.20;6.60;;;36.50;76.80;;;;;;4977553;28;20442;-66
2022/05/20 10:39:33;;;;;;;5.23;4.83;;;36.30;77.90;;;;;;4974766;28;20266;-67
2022/05/20 10:42:13;;;;;;;5.73;5.17;;;36.30;76.70;;;;;;4988386;28;20558;-68
2022/05/20 10:50:25;;;;;;;6.83;5.20;;;36.00;76.70;;;;;;4984917;28;20440;-70
2022/05/20 10:53:00;;;;;;;7.73;5.03;;;36.90;74.70;;;;;;4984506;28;20899;-68
2022/05/20 10:56:06;;;;;;;6.40;4.70;;;38.70;71.60;;;;;;4981313;28;20599;-69
2022/05/20 10:58:47;;;;;;;6.00;5.47;;;38.80;67.50;;;;;;4974077;28;20531;-66
2022/05/20 11:01:56;;;;;;;4.93;4.33;;;39.70;67.50;;;;;;4980114;28;20910;-68
2022/05/20 11:04:43;;;;;;;7.90;4.70;;;38.90;66.20;;;;;;4982863;28;20600;-66
2022/05/20 11:07:42;;;;;;;6.63;5.53;;;37.30;67.60;;;;;;4981396;28;20940;-66
2022/05/20 11:10:24;;;;;;;5.07;4.57;;;37.30;67.50;;;;;;4982161;28;20850;-68
2022/05/20 11:13:27;;;;;;;6.00;5.50;;;37.30;67.30;;;;;;4983821;28;20835;-66
2022/05/20 11:15:56;;;;;;;6.20;4.87;;;37.30;65.70;;;;;;4980531;28;20446;-67
2022/05/20 11:18:46;;;;;;;8.80;4.97;;;36.80;67.20;;;;;;4985080;28;20431;-66
2022/05/20 11:21:46;;;;;;;5.83;5.27;;;36.60;66.80;;;;;;4985772;28;20445;-66
2022/05/20 11:24:42;;;;;;;7.20;5.30;;;36.60;66.40;;;;;;4982122;28;20434;-65
2022/05/20 11:27:35;;;;;;;6.50;5.60;;;36.80;66.70;;;;;;4983161;28;20462;-66
2022/05/20 11:30:31;;;;;;;5.97;4.83;;;38.00;66.70;;;;;;4978895;28;20929;-71
2022/05/20 11:33:14;;;;;;;6.80;5.17;;;39.10;65.70;;;;;;4983965;28;20805;-67
2022/05/20 11:36:01;;;;;;;4.80;4.50;;;38.60;63.10;;;;;;4990428;28;20524;-66
2022/05/20 11:38:57;;;;;;;5.07;4.67;;;39.50;62.90;;;;;;4990500;28;20442;-67
2022/05/20 11:41:47;;;;;;;4.63;4.03;;;38.60;63.90;;;;;;4987049;28;20468;-65
2022/05/20 11:44:28;;;;;;;5.40;4.90;;;37.70;64.30;;;;;;4975743;28;20438;-66
2022/05/20 11:47:13;;;;;;;6.43;5.07;;;38.00;65.20;;;;;;4999078;28;20441;-69
2022/05/20 11:49:53;;;;;;;5.07;4.57;;;38.90;63.70;;;;;;4983050;28;20430;-66
2022/05/20 11:52:28;;;;;;;7.00;5.20;;;38.90;62.20;;;;;;4983424;28;20503;-65
2022/05/20 11:55:04;;;;;;;5.73;5.20;;;38.70;62.20;;;;;;4992937;28;20433;-65
2022/05/20 11:57:38;;;;;;;6.30;4.90;;;37.10;62.50;;;;;;4989983;28;20484;-66
2022/05/20 12:00:08;;;;;;;6.10;5.50;;;36.50;65.20;;;;;;4985191;28;20490;-66
2022/05/20 12:03:03;;;;;;;7.13;4.50;;;37.70;64.10;;;;;;4993116;28;20825;-66
2022/05/20 12:05:35;;;;;;;4.93;4.43;;;37.60;63.20;;;;;;4979502;28;20463;-66
2022/05/20 12:08:01;;;;;;;4.67;4.27;;;37.70;62.90;;;;;;4979187;28;20533;-66
2022/05/20 12:10:49;;;;;;;8.70;5.13;;;37.40;62.80;;;;;;4987082;28;21006;-66
2022/05/20 12:13:26;;;;;;;4.87;4.30;;;37.00;64.60;;;;;;4992456;28;20700;-66
2022/05/20 12:16:15;;;;;;;5.40;4.43;;;36.80;64.80;;;;;;4978300;28;20434;-65
2022/05/20 12:24:49;;;;;;;5.23;4.80;;;37.20;64.40;;;;;;4982519;28;20469;-66
2022/05/20 12:27:22;;;;;;;5.43;5.03;;;37.70;63.80;;;;;;4975936;28;20747;-69
2022/05/20 12:30:03;;;;;;;6.03;5.43;;;39.20;62.60;;;;;;4989563;28;20462;-66
2022/05/20 12:32:41;;;;;;;5.57;4.90;;;40.90;61.50;;;;;;4991404;28;20868;-66
2022/05/20 12:35:20;;;;;;;5.93;5.37;;;41.30;58.80;;;;;;4979624;28;20518;-66
2022/05/20 12:37:46;;;;;;;6.33;5.03;;;42.10;58.00;;;;;;4992196;28;20805;-66
2022/05/20 12:40:24;;;;;;;8.40;5.43;;;40.10;57.90;;;;;;4993237;28;20447;-65
2022/05/20 12:42:56;;;;;;;5.90;4.77;;;40.80;59.40;;;;;;4982039;28;20204;-66
2022/05/20 12:45:24;;;;;;;7.57;5.03;;;41.90;58.20;;;;;;4976908;28;20465;-66
2022/05/20 12:47:50;;;;;;;8.73;4.63;;;42.50;57.80;;;;;;4984032;28;20435;-65
2022/05/20 12:50:15;;;;;;;5.47;4.53;;;41.70;57.70;;;;;;4988651;28;20935;-66
2022/05/20 12:52:49;;;;;;;5.50;4.10;;;41.50;56.90;;;;;;4997180;28;20205;-65
2022/05/20 12:55:37;;;;;;;4.73;4.30;;;41.70;57.40;;;;;;4974577;28;20199;-66
2022/05/20 12:58:07;;;;;;;5.87;4.70;;;41.70;57.20;;;;;;4992186;28;20844;-66
2022/05/20 13:00:41;;;;;;;4.80;4.40;;;40.90;56.90;;;;;;4994772;28;20802;-66
2022/05/20 13:03:29;;;;;;;5.63;4.83;;;40.00;56.80;;;;;;4993579;28;20471;-67
2022/05/20 13:05:59;;;;;;;7.10;4.87;;;39.70;56.70;;;;;;4977017;28;20968;-68
2022/05/20 13:08:33;;;;;;;6.07;5.57;;;39.30;57.50;;;;;;4982620;28;20439;-66
2022/05/20 13:11:10;;;;;;;7.73;5.10;;;39.60;57.30;;;;;;4976333;28;20955;-66
2022/05/20 13:13:37;;;;;;;5.80;4.50;;;39.00;56.80;;;;;;4984444;28;22492;-66
2022/05/20 13:16:05;;;;;;;4.50;4.10;;;39.50;57.10;;;;;;4996832;28;20494;-66
2022/05/20 13:18:37;;;;;;;4.93;4.53;;;40.10;57.00;;;;;;4989421;28;20790;-67
2022/05/20 13:21:07;;;;;;;7.43;4.80;;;39.70;57.10;;;;;;4991178;28;20433;-66
2022/05/20 13:23:38;;;;;;;4.90;4.50;;;38.90;56.80;;;;;;4982044;28;20845;-66
2022/05/20 13:26:05;;;;;;;7.13;4.57;;;38.10;57.30;;;;;;4975877;28;20536;-65
2022/05/20 13:28:36;;;;;;;4.87;4.47;;;37.50;58.00;;;;;;4993810;28;20476;-66
2022/05/20 13:31:08;;;;;;;5.07;4.57;;;36.90;58.40;;;;;;4991527;28;20437;-67
2022/05/20 13:33:37;;;;;;;7.97;4.60;;;36.30;59.20;;;;;;4983688;28;20933;-66
2022/05/20 13:36:05;;;;;;;5.80;5.27;;;35.60;59.80;;;;;;4987391;28;20463;-66
2022/05/20 13:38:33;;;;;;;5.67;4.47;;;35.20;59.90;;;;;;4990726;28;20445;-66
2022/05/20 13:40:59;;;;;;;5.23;4.73;;;35.10;60.40;;;;;;4983713;28;20442;-65
2022/05/20 13:43:30;;;;;;;6.60;5.00;;;35.50;60.70;;;;;;4980465;28;20432;-66
2022/05/20 13:51:39;;;;;;;5.87;4.40;;;35.10;60.30;;;;;;4986775;28;20466;-66
2022/05/20 13:54:09;;;;;;;7.30;5.70;;;34.80;60.90;;;;;;4983805;28;20514;-66
2022/05/20 13:56:38;;;;;;;7.60;4.77;;;34.40;61.20;;;;;;4985936;28;20438;-65